sensor_id;sensor_type;location;lat;lon;timestamp;P1;durP1;ratioP1;P2;durP2;ratioP2
76727;SDS011;65652;53.132;18.026;2023-05-03T00:00:06;5.80;;;1.70;;
76727;SDS011;65652;53.132;18.026;2023-05-03T00:02:54;5.00;;;2.00;;
76727;SDS011;65652;53.132;18.026;2023-05-03T00:05:22;7.20;;;2.10;;
76727;SDS011;65652;53.132;18.026;2023-05-03T00:07:51;6.00;;;1.90;;
76727;SDS011;65652;53.132;18.026;2023-05-03T00:10:18;4.70;;;1.60;;
76727;SDS011;65652;53.132;18.026;2023-05-03T00:12:45;5.40;;;1.80;;
76727;SDS011;65652;53.132;18.026;2023-05-03T00:15:12;5.60;;;1.80;;
76727;SDS011;65652;53.132;18.026;2023-05-03T00:17:38;6.40;;;2.00;;
76727;SDS011;65652;53.132;18.026;2023-05-03T00:20:05;6.30;;;2.20;;
76727;SDS011;65652;53.132;18.026;2023-05-03T00:22:33;6.50;;;2.30;;
76727;SDS011;65652;53.132;18.026;2023-05-03T00:25:01;4.90;;;1.70;;
76727;SDS011;65652;53.132;18.026;2023-05-03T00:27:29;5.70;;;2.10;;
76727;SDS011;65652;53.132;18.026;2023-05-03T00:29:56;5.60;;;2.20;;
76727;SDS011;65652;53.132;18.026;2023-05-03T00:32:23;5.90;;;2.00;;
76727;SDS011;65652;53.132;18.026;2023-05-03T00:34:53;7.60;;;2.30;;
76727;SDS011;65652;53.132;18.026;2023-05-03T00:37:23;6.20;;;2.10;;
76727;SDS011;65652;53.132;18.026;2023-05-03T00:39:50;6.00;;;1.80;;
76727;SDS011;65652;53.132;18.026;2023-05-03T00:42:18;6.00;;;2.30;;
76727;SDS011;65652;53.132;18.026;2023-05-03T00:44:45;6.90;;;2.20;;
76727;SDS011;65652;53.132;18.026;2023-05-03T00:47:11;7.40;;;2.70;;
76727;SDS011;65652;53.132;18.026;2023-05-03T00:49:39;6.00;;;2.10;;
76727;SDS011;65652;53.132;18.026;2023-05-03T00:52:06;6.20;;;2.50;;
76727;SDS011;65652;53.132;18.026;2023-05-03T00:54:34;7.90;;;2.50;;
76727;SDS011;65652;53.132;18.026;2023-05-03T00:57:02;8.30;;;2.90;;
76727;SDS011;65652;53.132;18.026;2023-05-03T00:59:31;6.60;;;2.70;;
76727;SDS011;65652;53.132;18.026;2023-05-03T01:01:58;5.90;;;2.50;;
76727;SDS011;65652;53.132;18.026;2023-05-03T01:04:25;7.10;;;2.70;;
76727;SDS011;65652;53.132;18.026;2023-05-03T01:07:17;10.60;;;3.50;;
76727;SDS011;65652;53.132;18.026;2023-05-03T01:12:52;9.90;;;2.70;;
76727;SDS011;65652;53.132;18.026;2023-05-03T01:15:43;7.60;;;2.60;;
76727;SDS011;65652;53.132;18.026;2023-05-03T01:18:23;8.90;;;3.00;;
76727;SDS011;65652;53.132;18.026;2023-05-03T01:20:55;7.70;;;2.70;;
76727;SDS011;65652;53.132;18.026;2023-05-03T01:26:13;8.10;;;2.70;;
76727;SDS011;65652;53.132;18.026;2023-05-03T01:28:50;6.80;;;2.40;;
76727;SDS011;65652;53.132;18.026;2023-05-03T01:31:21;9.10;;;3.00;;
76727;SDS011;65652;53.132;18.026;2023-05-03T01:34:13;7.90;;;3.00;;
76727;SDS011;65652;53.132;18.026;2023-05-03T01:36:43;7.20;;;2.80;;
76727;SDS011;65652;53.132;18.026;2023-05-03T01:39:13;8.20;;;3.00;;
76727;SDS011;65652;53.132;18.026;2023-05-03T01:41:44;6.80;;;3.10;;
76727;SDS011;65652;53.132;18.026;2023-05-03T01:44:11;9.80;;;3.40;;
76727;SDS011;65652;53.132;18.026;2023-05-03T01:46:43;9.20;;;3.30;;
76727;SDS011;65652;53.132;18.026;2023-05-03T01:49:11;12.40;;;3.80;;
76727;SDS011;65652;53.132;18.026;2023-05-03T01:51:38;9.90;;;3.90;;
76727;SDS011;65652;53.132;18.026;2023-05-03T01:54:05;9.40;;;3.60;;
76727;SDS011;65652;53.132;18.026;2023-05-03T01:56:33;8.70;;;4.10;;
76727;SDS011;65652;53.132;18.026;2023-05-03T01:59:02;9.20;;;3.80;;
76727;SDS011;65652;53.132;18.026;2023-05-03T02:01:29;8.70;;;3.50;;
76727;SDS011;65652;53.132;18.026;2023-05-03T02:03:56;9.10;;;3.50;;
76727;SDS011;65652;53.132;18.026;2023-05-03T02:06:25;9.00;;;3.90;;
76727;SDS011;65652;53.132;18.026;2023-05-03T02:08:53;11.60;;;3.80;;
76727;SDS011;65652;53.132;18.026;2023-05-03T02:11:19;9.00;;;3.90;;
76727;SDS011;65652;53.132;18.026;2023-05-03T02:13:47;10.50;;;4.10;;
76727;SDS011;65652;53.132;18.026;2023-05-03T02:16:16;9.90;;;4.10;;
76727;SDS011;65652;53.132;18.026;2023-05-03T02:18:43;9.50;;;3.80;;
76727;SDS011;65652;53.132;18.026;2023-05-03T02:21:10;9.50;;;3.90;;
76727;SDS011;65652;53.132;18.026;2023-05-03T02:23:38;10.00;;;3.90;;
76727;SDS011;65652;53.132;18.026;2023-05-03T02:26:05;7.90;;;3.50;;
76727;SDS011;65652;53.132;18.026;2023-05-03T02:28:33;11.80;;;3.90;;
76727;SDS011;65652;53.132;18.026;2023-05-03T02:31:00;10.00;;;3.20;;
76727;SDS011;65652;53.132;18.026;2023-05-03T02:33:27;9.90;;;3.70;;
76727;SDS011;65652;53.132;18.026;2023-05-03T02:35:54;9.60;;;3.60;;
76727;SDS011;65652;53.132;18.026;2023-05-03T02:38:21;11.40;;;3.80;;
76727;SDS011;65652;53.132;18.026;2023-05-03T02:40:48;9.70;;;3.60;;
76727;SDS011;65652;53.132;18.026;2023-05-03T02:43:15;9.50;;;3.30;;
76727;SDS011;65652;53.132;18.026;2023-05-03T02:45:42;9.70;;;2.90;;
76727;SDS011;65652;53.132;18.026;2023-05-03T02:48:11;7.10;;;2.50;;
76727;SDS011;65652;53.132;18.026;2023-05-03T02:50:38;10.30;;;3.20;;
76727;SDS011;65652;53.132;18.026;2023-05-03T02:53:05;11.90;;;3.20;;
76727;SDS011;65652;53.132;18.026;2023-05-03T02:55:32;9.40;;;3.00;;
76727;SDS011;65652;53.132;18.026;2023-05-03T02:58:00;8.30;;;3.50;;
76727;SDS011;65652;53.132;18.026;2023-05-03T03:00:27;7.30;;;2.60;;
76727;SDS011;65652;53.132;18.026;2023-05-03T03:02:54;8.80;;;3.30;;
76727;SDS011;65652;53.132;18.026;2023-05-03T03:05:21;6.30;;;2.00;;
76727;SDS011;65652;53.132;18.026;2023-05-03T03:07:49;8.60;;;3.10;;
76727;SDS011;65652;53.132;18.026;2023-05-03T03:10:16;9.30;;;3.60;;
76727;SDS011;65652;53.132;18.026;2023-05-03T03:12:43;9.60;;;3.40;;
76727;SDS011;65652;53.132;18.026;2023-05-03T03:15:12;7.60;;;2.60;;
76727;SDS011;65652;53.132;18.026;2023-05-03T03:17:39;8.90;;;3.70;;
76727;SDS011;65652;53.132;18.026;2023-05-03T03:20:07;12.70;;;3.90;;
76727;SDS011;65652;53.132;18.026;2023-05-03T03:22:38;11.40;;;3.80;;
76727;SDS011;65652;53.132;18.026;2023-05-03T03:25:05;9.30;;;2.70;;
76727;SDS011;65652;53.132;18.026;2023-05-03T03:27:33;6.80;;;2.30;;
76727;SDS011;65652;53.132;18.026;2023-05-03T03:30:00;9.40;;;2.60;;
76727;SDS011;65652;53.132;18.026;2023-05-03T03:32:27;11.00;;;3.90;;
76727;SDS011;65652;53.132;18.026;2023-05-03T03:34:54;7.60;;;2.80;;
76727;SDS011;65652;53.132;18.026;2023-05-03T03:37:21;8.30;;;2.90;;
76727;SDS011;65652;53.132;18.026;2023-05-03T03:39:48;9.50;;;3.70;;
76727;SDS011;65652;53.132;18.026;2023-05-03T03:42:15;8.30;;;3.90;;
76727;SDS011;65652;53.132;18.026;2023-05-03T03:44:42;10.90;;;3.70;;
76727;SDS011;65652;53.132;18.026;2023-05-03T03:47:09;10.30;;;4.10;;
76727;SDS011;65652;53.132;18.026;2023-05-03T03:49:36;9.80;;;4.00;;
76727;SDS011;65652;53.132;18.026;2023-05-03T03:52:03;9.60;;;3.60;;
76727;SDS011;65652;53.132;18.026;2023-05-03T03:54:31;10.70;;;3.70;;
76727;SDS011;65652;53.132;18.026;2023-05-03T03:57:00;12.70;;;4.50;;
76727;SDS011;65652;53.132;18.026;2023-05-03T03:59:28;7.90;;;3.10;;
76727;SDS011;65652;53.132;18.026;2023-05-03T04:01:58;11.20;;;3.90;;
76727;SDS011;65652;53.132;18.026;2023-05-03T04:04:25;9.70;;;3.60;;
76727;SDS011;65652;53.132;18.026;2023-05-03T04:06:54;7.90;;;3.20;;
76727;SDS011;65652;53.132;18.026;2023-05-03T04:09:22;11.00;;;4.60;;
76727;SDS011;65652;53.132;18.026;2023-05-03T04:11:49;8.10;;;3.10;;
76727;SDS011;65652;53.132;18.026;2023-05-03T04:14:16;10.20;;;3.90;;
76727;SDS011;65652;53.132;18.026;2023-05-03T04:19:11;8.00;;;3.10;;
76727;SDS011;65652;53.132;18.026;2023-05-03T04:21:39;6.60;;;2.50;;
76727;SDS011;65652;53.132;18.026;2023-05-03T04:24:06;13.10;;;4.30;;
76727;SDS011;65652;53.132;18.026;2023-05-03T04:26:34;11.20;;;4.70;;
76727;SDS011;65652;53.132;18.026;2023-05-03T04:29:06;12.10;;;3.50;;
76727;SDS011;65652;53.132;18.026;2023-05-03T04:31:33;6.90;;;2.90;;
76727;SDS011;65652;53.132;18.026;2023-05-03T04:34:01;8.00;;;3.70;;
76727;SDS011;65652;53.132;18.026;2023-05-03T04:36:28;7.90;;;3.30;;
76727;SDS011;65652;53.132;18.026;2023-05-03T04:38:55;10.60;;;3.60;;
76727;SDS011;65652;53.132;18.026;2023-05-03T04:41:23;9.90;;;3.90;;
76727;SDS011;65652;53.132;18.026;2023-05-03T04:43:50;8.80;;;3.30;;
76727;SDS011;65652;53.132;18.026;2023-05-03T04:46:17;8.50;;;3.00;;
76727;SDS011;65652;53.132;18.026;2023-05-03T04:48:44;6.90;;;1.90;;
76727;SDS011;65652;53.132;18.026;2023-05-03T04:51:11;7.60;;;2.70;;
76727;SDS011;65652;53.132;18.026;2023-05-03T04:53:39;7.70;;;3.20;;
76727;SDS011;65652;53.132;18.026;2023-05-03T04:56:10;8.60;;;3.60;;
76727;SDS011;65652;53.132;18.026;2023-05-03T04:58:38;8.70;;;2.80;;
76727;SDS011;65652;53.132;18.026;2023-05-03T05:01:05;9.30;;;3.70;;
76727;SDS011;65652;53.132;18.026;2023-05-03T05:03:32;9.60;;;3.20;;
76727;SDS011;65652;53.132;18.026;2023-05-03T05:06:02;8.40;;;2.90;;
76727;SDS011;65652;53.132;18.026;2023-05-03T05:08:29;7.10;;;3.10;;
76727;SDS011;65652;53.132;18.026;2023-05-03T05:10:56;8.30;;;3.40;;
76727;SDS011;65652;53.132;18.026;2023-05-03T05:13:26;7.70;;;2.70;;
76727;SDS011;65652;53.132;18.026;2023-05-03T05:15:53;7.70;;;3.10;;
76727;SDS011;65652;53.132;18.026;2023-05-03T05:18:21;8.60;;;3.20;;
76727;SDS011;65652;53.132;18.026;2023-05-03T05:20:49;7.60;;;3.20;;
76727;SDS011;65652;53.132;18.026;2023-05-03T05:23:16;8.00;;;3.00;;
76727;SDS011;65652;53.132;18.026;2023-05-03T05:25:44;9.10;;;4.00;;
76727;SDS011;65652;53.132;18.026;2023-05-03T05:28:11;8.80;;;3.60;;
76727;SDS011;65652;53.132;18.026;2023-05-03T05:30:38;11.30;;;4.00;;
76727;SDS011;65652;53.132;18.026;2023-05-03T05:33:06;9.10;;;3.70;;
76727;SDS011;65652;53.132;18.026;2023-05-03T05:35:33;8.60;;;3.70;;
76727;SDS011;65652;53.132;18.026;2023-05-03T05:38:00;11.30;;;3.90;;
76727;SDS011;65652;53.132;18.026;2023-05-03T05:40:27;9.30;;;3.30;;
76727;SDS011;65652;53.132;18.026;2023-05-03T05:45:23;8.00;;;3.40;;
76727;SDS011;65652;53.132;18.026;2023-05-03T05:47:50;8.50;;;2.80;;
76727;SDS011;65652;53.132;18.026;2023-05-03T05:50:17;10.50;;;3.50;;
76727;SDS011;65652;53.132;18.026;2023-05-03T05:52:44;8.60;;;2.70;;
76727;SDS011;65652;53.132;18.026;2023-05-03T05:55:13;7.90;;;3.50;;
76727;SDS011;65652;53.132;18.026;2023-05-03T05:57:41;6.80;;;3.00;;
76727;SDS011;65652;53.132;18.026;2023-05-03T06:00:09;9.40;;;3.10;;
76727;SDS011;65652;53.132;18.026;2023-05-03T06:02:40;9.10;;;3.20;;
76727;SDS011;65652;53.132;18.026;2023-05-03T06:05:10;7.60;;;2.40;;
76727;SDS011;65652;53.132;18.026;2023-05-03T06:07:37;7.30;;;2.50;;
76727;SDS011;65652;53.132;18.026;2023-05-03T06:10:04;7.30;;;2.20;;
76727;SDS011;65652;53.132;18.026;2023-05-03T06:12:32;10.70;;;3.20;;
76727;SDS011;65652;53.132;18.026;2023-05-03T06:15:00;7.60;;;2.70;;
76727;SDS011;65652;53.132;18.026;2023-05-03T06:17:27;6.90;;;2.50;;
76727;SDS011;65652;53.132;18.026;2023-05-03T06:19:54;5.70;;;2.30;;
76727;SDS011;65652;53.132;18.026;2023-05-03T06:22:21;5.10;;;1.60;;
76727;SDS011;65652;53.132;18.026;2023-05-03T06:24:48;6.30;;;2.30;;
76727;SDS011;65652;53.132;18.026;2023-05-03T06:27:15;6.30;;;2.30;;
76727;SDS011;65652;53.132;18.026;2023-05-03T06:29:43;5.20;;;1.70;;
76727;SDS011;65652;53.132;18.026;2023-05-03T06:32:10;6.00;;;2.00;;
76727;SDS011;65652;53.132;18.026;2023-05-03T06:34:37;7.50;;;1.80;;
76727;SDS011;65652;53.132;18.026;2023-05-03T06:37:04;5.90;;;2.00;;
76727;SDS011;65652;53.132;18.026;2023-05-03T06:39:31;5.50;;;1.70;;
76727;SDS011;65652;53.132;18.026;2023-05-03T06:41:58;5.70;;;2.20;;
76727;SDS011;65652;53.132;18.026;2023-05-03T06:44:33;6.60;;;1.70;;
76727;SDS011;65652;53.132;18.026;2023-05-03T06:47:00;6.30;;;1.60;;
76727;SDS011;65652;53.132;18.026;2023-05-03T06:49:27;6.40;;;2.10;;
76727;SDS011;65652;53.132;18.026;2023-05-03T06:51:53;5.20;;;1.80;;
76727;SDS011;65652;53.132;18.026;2023-05-03T06:54:20;6.30;;;1.90;;
76727;SDS011;65652;53.132;18.026;2023-05-03T06:56:47;5.20;;;1.60;;
76727;SDS011;65652;53.132;18.026;2023-05-03T06:59:15;4.20;;;1.50;;
76727;SDS011;65652;53.132;18.026;2023-05-03T07:01:42;7.00;;;1.70;;
76727;SDS011;65652;53.132;18.026;2023-05-03T07:04:08;5.40;;;1.90;;
76727;SDS011;65652;53.132;18.026;2023-05-03T07:06:35;4.50;;;1.60;;
76727;SDS011;65652;53.132;18.026;2023-05-03T07:09:02;4.30;;;1.50;;
76727;SDS011;65652;53.132;18.026;2023-05-03T07:11:30;6.30;;;1.40;;
76727;SDS011;65652;53.132;18.026;2023-05-03T07:13:57;4.70;;;1.50;;
76727;SDS011;65652;53.132;18.026;2023-05-03T07:16:24;4.30;;;1.20;;
76727;SDS011;65652;53.132;18.026;2023-05-03T07:18:50;4.60;;;1.40;;
76727;SDS011;65652;53.132;18.026;2023-05-03T07:21:17;5.60;;;1.60;;
76727;SDS011;65652;53.132;18.026;2023-05-03T07:23:44;4.00;;;1.40;;
76727;SDS011;65652;53.132;18.026;2023-05-03T07:26:11;4.40;;;1.50;;
76727;SDS011;65652;53.132;18.026;2023-05-03T07:28:38;5.20;;;1.50;;
76727;SDS011;65652;53.132;18.026;2023-05-03T07:31:04;5.50;;;1.60;;
76727;SDS011;65652;53.132;18.026;2023-05-03T07:33:34;5.00;;;1.60;;
76727;SDS011;65652;53.132;18.026;2023-05-03T07:36:03;4.30;;;1.50;;
76727;SDS011;65652;53.132;18.026;2023-05-03T07:38:30;4.70;;;1.60;;
76727;SDS011;65652;53.132;18.026;2023-05-03T07:40:57;4.80;;;1.40;;
76727;SDS011;65652;53.132;18.026;2023-05-03T07:43:24;4.60;;;1.70;;
76727;SDS011;65652;53.132;18.026;2023-05-03T07:45:51;5.00;;;1.60;;
76727;SDS011;65652;53.132;18.026;2023-05-03T07:48:17;6.30;;;1.60;;
76727;SDS011;65652;53.132;18.026;2023-05-03T07:50:44;4.00;;;1.10;;
76727;SDS011;65652;53.132;18.026;2023-05-03T07:53:12;4.30;;;1.60;;
76727;SDS011;65652;53.132;18.026;2023-05-03T07:55:39;4.30;;;1.40;;
76727;SDS011;65652;53.132;18.026;2023-05-03T07:58:07;5.10;;;1.70;;
76727;SDS011;65652;53.132;18.026;2023-05-03T08:00:34;4.30;;;1.40;;
76727;SDS011;65652;53.132;18.026;2023-05-03T08:03:01;5.30;;;1.60;;
76727;SDS011;65652;53.132;18.026;2023-05-03T08:05:29;4.50;;;1.70;;
76727;SDS011;65652;53.132;18.026;2023-05-03T08:07:56;4.70;;;2.00;;
76727;SDS011;65652;53.132;18.026;2023-05-03T08:10:23;6.80;;;1.90;;
76727;SDS011;65652;53.132;18.026;2023-05-03T08:12:50;4.20;;;1.60;;
76727;SDS011;65652;53.132;18.026;2023-05-03T08:15:17;4.30;;;1.40;;
76727;SDS011;65652;53.132;18.026;2023-05-03T08:17:44;5.20;;;1.60;;
76727;SDS011;65652;53.132;18.026;2023-05-03T08:20:11;4.70;;;1.40;;
76727;SDS011;65652;53.132;18.026;2023-05-03T08:22:39;5.00;;;1.30;;
76727;SDS011;65652;53.132;18.026;2023-05-03T08:25:06;3.80;;;1.50;;
76727;SDS011;65652;53.132;18.026;2023-05-03T08:27:34;4.70;;;1.20;;
76727;SDS011;65652;53.132;18.026;2023-05-03T08:30:00;5.10;;;1.80;;
76727;SDS011;65652;53.132;18.026;2023-05-03T08:32:28;5.50;;;1.70;;
76727;SDS011;65652;53.132;18.026;2023-05-03T08:34:55;4.80;;;1.50;;
76727;SDS011;65652;53.132;18.026;2023-05-03T08:37:22;4.70;;;1.40;;
76727;SDS011;65652;53.132;18.026;2023-05-03T08:39:49;3.90;;;1.30;;
76727;SDS011;65652;53.132;18.026;2023-05-03T08:42:16;4.70;;;1.40;;
76727;SDS011;65652;53.132;18.026;2023-05-03T08:44:45;5.40;;;1.60;;
76727;SDS011;65652;53.132;18.026;2023-05-03T08:47:16;4.40;;;1.40;;
76727;SDS011;65652;53.132;18.026;2023-05-03T08:49:43;3.90;;;1.30;;
76727;SDS011;65652;53.132;18.026;2023-05-03T08:52:10;5.20;;;1.70;;
76727;SDS011;65652;53.132;18.026;2023-05-03T08:54:39;4.70;;;1.30;;
76727;SDS011;65652;53.132;18.026;2023-05-03T08:57:09;4.80;;;1.80;;
76727;SDS011;65652;53.132;18.026;2023-05-03T08:59:49;4.90;;;1.30;;
76727;SDS011;65652;53.132;18.026;2023-05-03T09:02:19;4.50;;;1.60;;
76727;SDS011;65652;53.132;18.026;2023-05-03T09:07:13;4.70;;;1.40;;
76727;SDS011;65652;53.132;18.026;2023-05-03T09:09:42;4.20;;;1.30;;
76727;SDS011;65652;53.132;18.026;2023-05-03T09:12:09;4.60;;;1.10;;
76727;SDS011;65652;53.132;18.026;2023-05-03T09:14:45;3.90;;;1.20;;
76727;SDS011;65652;53.132;18.026;2023-05-03T09:17:13;3.40;;;1.20;;
76727;SDS011;65652;53.132;18.026;2023-05-03T09:19:48;3.40;;;1.10;;
76727;SDS011;65652;53.132;18.026;2023-05-03T09:22:20;3.50;;;1.30;;
76727;SDS011;65652;53.132;18.026;2023-05-03T09:24:55;5.30;;;1.50;;
76727;SDS011;65652;53.132;18.026;2023-05-03T09:27:23;5.50;;;1.60;;
76727;SDS011;65652;53.132;18.026;2023-05-03T09:29:51;4.10;;;1.40;;
76727;SDS011;65652;53.132;18.026;2023-05-03T09:32:19;6.20;;;1.80;;
76727;SDS011;65652;53.132;18.026;2023-05-03T09:34:50;4.30;;;1.40;;
76727;SDS011;65652;53.132;18.026;2023-05-03T09:37:17;3.80;;;1.10;;
76727;SDS011;65652;53.132;18.026;2023-05-03T09:40:05;5.10;;;1.70;;
76727;SDS011;65652;53.132;18.026;2023-05-03T09:42:37;3.70;;;1.20;;
76727;SDS011;65652;53.132;18.026;2023-05-03T09:45:04;4.60;;;1.50;;
76727;SDS011;65652;53.132;18.026;2023-05-03T09:47:36;5.60;;;1.30;;
76727;SDS011;65652;53.132;18.026;2023-05-03T09:50:15;5.70;;;1.40;;
76727;SDS011;65652;53.132;18.026;2023-05-03T09:52:42;5.10;;;1.50;;
76727;SDS011;65652;53.132;18.026;2023-05-03T09:55:09;4.00;;;1.20;;
76727;SDS011;65652;53.132;18.026;2023-05-03T09:57:37;4.40;;;1.10;;
76727;SDS011;65652;53.132;18.026;2023-05-03T10:00:04;5.20;;;1.30;;
76727;SDS011;65652;53.132;18.026;2023-05-03T10:02:39;6.20;;;1.80;;
76727;SDS011;65652;53.132;18.026;2023-05-03T10:05:08;4.50;;;1.30;;
76727;SDS011;65652;53.132;18.026;2023-05-03T10:07:37;5.20;;;1.50;;
76727;SDS011;65652;53.132;18.026;2023-05-03T10:10:07;4.70;;;1.10;;
76727;SDS011;65652;53.132;18.026;2023-05-03T10:12:34;3.70;;;1.00;;
76727;SDS011;65652;53.132;18.026;2023-05-03T10:17:34;4.10;;;1.50;;
76727;SDS011;65652;53.132;18.026;2023-05-03T10:20:09;5.10;;;1.50;;
76727;SDS011;65652;53.132;18.026;2023-05-03T10:25:38;4.20;;;1.40;;
76727;SDS011;65652;53.132;18.026;2023-05-03T10:28:07;3.50;;;1.10;;
76727;SDS011;65652;53.132;18.026;2023-05-03T10:30:36;4.20;;;1.20;;
76727;SDS011;65652;53.132;18.026;2023-05-03T10:35:39;3.80;;;1.20;;
76727;SDS011;65652;53.132;18.026;2023-05-03T10:38:13;4.00;;;1.20;;
76727;SDS011;65652;53.132;18.026;2023-05-03T10:48:31;3.60;;;1.00;;
76727;SDS011;65652;53.132;18.026;2023-05-03T10:53:58;3.50;;;1.10;;
76727;SDS011;65652;53.132;18.026;2023-05-03T10:56:25;5.10;;;1.10;;
76727;SDS011;65652;53.132;18.026;2023-05-03T10:58:52;4.10;;;1.10;;
76727;SDS011;65652;53.132;18.026;2023-05-03T11:01:22;3.70;;;1.20;;
76727;SDS011;65652;53.132;18.026;2023-05-03T11:04:04;3.60;;;1.20;;
76727;SDS011;65652;53.132;18.026;2023-05-03T11:06:36;4.80;;;1.40;;
76727;SDS011;65652;53.132;18.026;2023-05-03T11:09:07;3.50;;;1.10;;
76727;SDS011;65652;53.132;18.026;2023-05-03T11:11:36;3.40;;;1.20;;
76727;SDS011;65652;53.132;18.026;2023-05-03T11:14:05;5.70;;;1.20;;
76727;SDS011;65652;53.132;18.026;2023-05-03T11:16:33;3.50;;;1.10;;
76727;SDS011;65652;53.132;18.026;2023-05-03T11:19:02;5.00;;;1.50;;
76727;SDS011;65652;53.132;18.026;2023-05-03T11:21:29;4.20;;;1.40;;
76727;SDS011;65652;53.132;18.026;2023-05-03T11:23:57;4.50;;;1.50;;
76727;SDS011;65652;53.132;18.026;2023-05-03T11:26:24;4.10;;;1.20;;
76727;SDS011;65652;53.132;18.026;2023-05-03T11:28:52;8.80;;;1.80;;
76727;SDS011;65652;53.132;18.026;2023-05-03T11:31:20;5.00;;;1.60;;
76727;SDS011;65652;53.132;18.026;2023-05-03T11:33:48;4.50;;;1.30;;
76727;SDS011;65652;53.132;18.026;2023-05-03T11:36:16;3.70;;;1.20;;
76727;SDS011;65652;53.132;18.026;2023-05-03T11:38:43;3.90;;;1.30;;
76727;SDS011;65652;53.132;18.026;2023-05-03T11:41:11;4.40;;;1.70;;
76727;SDS011;65652;53.132;18.026;2023-05-03T11:43:40;3.90;;;1.10;;
76727;SDS011;65652;53.132;18.026;2023-05-03T11:46:08;4.40;;;1.40;;
76727;SDS011;65652;53.132;18.026;2023-05-03T11:48:36;4.00;;;1.20;;
76727;SDS011;65652;53.132;18.026;2023-05-03T11:51:07;3.70;;;1.30;;
76727;SDS011;65652;53.132;18.026;2023-05-03T11:53:37;4.30;;;1.10;;
76727;SDS011;65652;53.132;18.026;2023-05-03T11:56:06;4.00;;;1.50;;
76727;SDS011;65652;53.132;18.026;2023-05-03T11:58:35;5.10;;;1.60;;
76727;SDS011;65652;53.132;18.026;2023-05-03T12:01:19;6.10;;;1.80;;
76727;SDS011;65652;53.132;18.026;2023-05-03T12:03:58;6.20;;;1.70;;
76727;SDS011;65652;53.132;18.026;2023-05-03T12:06:27;3.40;;;1.30;;
76727;SDS011;65652;53.132;18.026;2023-05-03T12:08:57;6.10;;;1.30;;
76727;SDS011;65652;53.132;18.026;2023-05-03T12:11:24;8.00;;;2.60;;
76727;SDS011;65652;53.132;18.026;2023-05-03T12:13:54;4.70;;;1.70;;
76727;SDS011;65652;53.132;18.026;2023-05-03T12:16:24;4.40;;;1.50;;
76727;SDS011;65652;53.132;18.026;2023-05-03T12:18:52;4.90;;;1.20;;
76727;SDS011;65652;53.132;18.026;2023-05-03T12:21:22;6.20;;;1.30;;
76727;SDS011;65652;53.132;18.026;2023-05-03T12:23:50;4.30;;;1.30;;
76727;SDS011;65652;53.132;18.026;2023-05-03T12:26:18;3.90;;;1.30;;
76727;SDS011;65652;53.132;18.026;2023-05-03T12:28:46;3.50;;;1.00;;
76727;SDS011;65652;53.132;18.026;2023-05-03T12:31:14;4.90;;;1.20;;
76727;SDS011;65652;53.132;18.026;2023-05-03T12:33:42;4.60;;;1.60;;
76727;SDS011;65652;53.132;18.026;2023-05-03T12:36:09;4.40;;;1.50;;
76727;SDS011;65652;53.132;18.026;2023-05-03T12:38:36;6.20;;;2.30;;
76727;SDS011;65652;53.132;18.026;2023-05-03T12:41:03;6.90;;;1.50;;
76727;SDS011;65652;53.132;18.026;2023-05-03T12:43:30;5.40;;;1.70;;
76727;SDS011;65652;53.132;18.026;2023-05-03T12:45:57;4.70;;;1.40;;
76727;SDS011;65652;53.132;18.026;2023-05-03T12:48:28;5.00;;;1.40;;
76727;SDS011;65652;53.132;18.026;2023-05-03T12:50:56;3.90;;;1.00;;
76727;SDS011;65652;53.132;18.026;2023-05-03T12:53:23;4.80;;;1.40;;
76727;SDS011;65652;53.132;18.026;2023-05-03T12:55:51;5.10;;;1.60;;
76727;SDS011;65652;53.132;18.026;2023-05-03T12:58:20;3.60;;;1.20;;
76727;SDS011;65652;53.132;18.026;2023-05-03T13:00:47;3.40;;;1.10;;
76727;SDS011;65652;53.132;18.026;2023-05-03T13:03:14;3.70;;;1.20;;
76727;SDS011;65652;53.132;18.026;2023-05-03T13:05:41;4.30;;;1.20;;
76727;SDS011;65652;53.132;18.026;2023-05-03T13:08:08;5.40;;;1.90;;
76727;SDS011;65652;53.132;18.026;2023-05-03T13:10:36;3.50;;;1.20;;
76727;SDS011;65652;53.132;18.026;2023-05-03T13:13:04;4.10;;;1.30;;
76727;SDS011;65652;53.132;18.026;2023-05-03T13:15:31;3.70;;;1.10;;
76727;SDS011;65652;53.132;18.026;2023-05-03T13:18:00;4.30;;;1.20;;
76727;SDS011;65652;53.132;18.026;2023-05-03T13:20:30;4.30;;;1.20;;
76727;SDS011;65652;53.132;18.026;2023-05-03T13:22:57;5.10;;;1.30;;
76727;SDS011;65652;53.132;18.026;2023-05-03T13:25:25;3.80;;;1.00;;
76727;SDS011;65652;53.132;18.026;2023-05-03T13:27:52;5.60;;;1.50;;
76727;SDS011;65652;53.132;18.026;2023-05-03T13:32:50;3.60;;;1.10;;
76727;SDS011;65652;53.132;18.026;2023-05-03T13:35:17;4.60;;;1.20;;
76727;SDS011;65652;53.132;18.026;2023-05-03T13:37:45;4.50;;;1.40;;
76727;SDS011;65652;53.132;18.026;2023-05-03T13:40:12;6.40;;;1.20;;
76727;SDS011;65652;53.132;18.026;2023-05-03T13:42:40;5.70;;;1.90;;
76727;SDS011;65652;53.132;18.026;2023-05-03T13:45:07;4.10;;;1.40;;
76727;SDS011;65652;53.132;18.026;2023-05-03T13:50:02;5.30;;;1.40;;
76727;SDS011;65652;53.132;18.026;2023-05-03T13:52:28;3.60;;;1.00;;
76727;SDS011;65652;53.132;18.026;2023-05-03T13:54:56;4.60;;;1.30;;
76727;SDS011;65652;53.132;18.026;2023-05-03T13:57:23;4.10;;;1.30;;
76727;SDS011;65652;53.132;18.026;2023-05-03T13:59:50;5.10;;;1.30;;
76727;SDS011;65652;53.132;18.026;2023-05-03T14:02:17;4.70;;;1.50;;
76727;SDS011;65652;53.132;18.026;2023-05-03T14:04:44;4.90;;;1.20;;
76727;SDS011;65652;53.132;18.026;2023-05-03T14:09:38;3.80;;;1.00;;
76727;SDS011;65652;53.132;18.026;2023-05-03T14:12:06;3.90;;;1.30;;
76727;SDS011;65652;53.132;18.026;2023-05-03T14:14:32;3.80;;;1.10;;
76727;SDS011;65652;53.132;18.026;2023-05-03T14:17:00;4.50;;;1.40;;
76727;SDS011;65652;53.132;18.026;2023-05-03T14:19:27;4.60;;;1.30;;
76727;SDS011;65652;53.132;18.026;2023-05-03T14:21:55;4.90;;;1.90;;
76727;SDS011;65652;53.132;18.026;2023-05-03T14:24:24;5.70;;;1.30;;
76727;SDS011;65652;53.132;18.026;2023-05-03T14:26:52;4.00;;;1.30;;
76727;SDS011;65652;53.132;18.026;2023-05-03T14:29:19;6.00;;;1.40;;
76727;SDS011;65652;53.132;18.026;2023-05-03T14:31:46;3.80;;;1.30;;
76727;SDS011;65652;53.132;18.026;2023-05-03T14:34:12;3.60;;;1.10;;
76727;SDS011;65652;53.132;18.026;2023-05-03T14:36:39;3.60;;;1.10;;
76727;SDS011;65652;53.132;18.026;2023-05-03T14:39:09;3.90;;;1.10;;
76727;SDS011;65652;53.132;18.026;2023-05-03T14:41:39;6.70;;;2.80;;
76727;SDS011;65652;53.132;18.026;2023-05-03T14:44:07;6.30;;;2.50;;
76727;SDS011;65652;53.132;18.026;2023-05-03T14:46:34;3.80;;;1.30;;
76727;SDS011;65652;53.132;18.026;2023-05-03T14:49:01;5.30;;;1.30;;
76727;SDS011;65652;53.132;18.026;2023-05-03T14:51:28;4.80;;;1.40;;
76727;SDS011;65652;53.132;18.026;2023-05-03T14:53:55;4.50;;;1.30;;
76727;SDS011;65652;53.132;18.026;2023-05-03T14:56:22;5.80;;;1.60;;
76727;SDS011;65652;53.132;18.026;2023-05-03T14:58:49;5.10;;;1.40;;
76727;SDS011;65652;53.132;18.026;2023-05-03T15:01:17;7.40;;;1.90;;
76727;SDS011;65652;53.132;18.026;2023-05-03T15:03:45;4.10;;;1.40;;
76727;SDS011;65652;53.132;18.026;2023-05-03T15:06:12;3.60;;;1.30;;
76727;SDS011;65652;53.132;18.026;2023-05-03T15:08:39;4.00;;;1.10;;
76727;SDS011;65652;53.132;18.026;2023-05-03T15:11:06;4.10;;;1.40;;
76727;SDS011;65652;53.132;18.026;2023-05-03T15:13:33;5.20;;;1.40;;
76727;SDS011;65652;53.132;18.026;2023-05-03T15:16:00;5.20;;;1.90;;
76727;SDS011;65652;53.132;18.026;2023-05-03T15:18:27;4.90;;;1.20;;